sensor_id;sensor_type;location;lat;lon;timestamp;P1;durP1;ratioP1;P2;durP2;ratioP2
1977;SDS011;989;53.016;8.346;2023-08-17T00:00:22;6.17;;;2.40;;
1977;SDS011;989;53.016;8.346;2023-08-17T00:02:48;9.13;;;2.80;;
1977;SDS011;989;53.016;8.346;2023-08-17T00:05:14;6.43;;;2.03;;
1977;SDS011;989;53.016;8.346;2023-08-17T00:07:41;7.63;;;2.40;;
1977;SDS011;989;53.016;8.346;2023-08-17T00:10:07;8.40;;;2.40;;
1977;SDS011;989;53.016;8.346;2023-08-17T00:12:33;3.10;;;2.27;;
1977;SDS011;989;53.016;8.346;2023-08-17T00:14:59;3.00;;;2.30;;
1977;SDS011;989;53.016;8.346;2023-08-17T00:17:25;5.27;;;2.40;;
1977;SDS011;989;53.016;8.346;2023-08-17T00:19:51;9.13;;;2.47;;
1977;SDS011;989;53.016;8.346;2023-08-17T00:22:17;5.40;;;2.67;;
1977;SDS011;989;53.016;8.346;2023-08-17T00:24:43;14.37;;;3.37;;
1977;SDS011;989;53.016;8.346;2023-08-17T00:27:10;5.83;;;2.47;;
1977;SDS011;989;53.016;8.346;2023-08-17T00:29:36;2.70;;;1.93;;
1977;SDS011;989;53.016;8.346;2023-08-17T00:32:02;6.77;;;2.33;;
1977;SDS011;989;53.016;8.346;2023-08-17T00:34:29;8.40;;;3.00;;
1977;SDS011;989;53.016;8.346;2023-08-17T00:36:55;5.13;;;2.27;;
1977;SDS011;989;53.016;8.346;2023-08-17T00:39:21;5.50;;;2.73;;
1977;SDS011;989;53.016;8.346;2023-08-17T00:41:47;6.87;;;2.40;;
1977;SDS011;989;53.016;8.346;2023-08-17T00:44:13;5.33;;;2.63;;
1977;SDS011;989;53.016;8.346;2023-08-17T00:46:39;4.30;;;2.60;;
1977;SDS011;989;53.016;8.346;2023-08-17T00:49:06;16.53;;;2.20;;
1977;SDS011;989;53.016;8.346;2023-08-17T00:51:32;12.33;;;2.90;;
1977;SDS011;989;53.016;8.346;2023-08-17T00:53:59;13.30;;;2.30;;
1977;SDS011;989;53.016;8.346;2023-08-17T00:56:28;2.67;;;2.13;;
1977;SDS011;989;53.016;8.346;2023-08-17T00:58:55;3.47;;;2.33;;
1977;SDS011;989;53.016;8.346;2023-08-17T01:01:21;6.63;;;2.67;;
1977;SDS011;989;53.016;8.346;2023-08-17T01:03:48;4.47;;;2.37;;
1977;SDS011;989;53.016;8.346;2023-08-17T01:06:14;10.80;;;2.97;;
1977;SDS011;989;53.016;8.346;2023-08-17T01:08:40;8.10;;;2.30;;
1977;SDS011;989;53.016;8.346;2023-08-17T01:13:44;9.40;;;2.97;;
1977;SDS011;989;53.016;8.346;2023-08-17T01:16:38;6.67;;;2.63;;
1977;SDS011;989;53.016;8.346;2023-08-17T01:19:13;4.93;;;2.93;;
1977;SDS011;989;53.016;8.346;2023-08-17T01:21:49;12.93;;;3.47;;
1977;SDS011;989;53.016;8.346;2023-08-17T01:24:16;5.50;;;3.03;;
1977;SDS011;989;53.016;8.346;2023-08-17T01:26:42;7.30;;;2.37;;
1977;SDS011;989;53.016;8.346;2023-08-17T01:29:08;9.53;;;3.77;;
1977;SDS011;989;53.016;8.346;2023-08-17T01:31:40;13.40;;;3.20;;
1977;SDS011;989;53.016;8.346;2023-08-17T01:34:25;4.07;;;3.00;;
1977;SDS011;989;53.016;8.346;2023-08-17T01:36:55;13.13;;;4.03;;
1977;SDS011;989;53.016;8.346;2023-08-17T01:39:23;7.60;;;3.13;;
1977;SDS011;989;53.016;8.346;2023-08-17T01:41:56;5.40;;;2.90;;
1977;SDS011;989;53.016;8.346;2023-08-17T01:44:23;11.27;;;3.93;;
1977;SDS011;989;53.016;8.346;2023-08-17T01:46:51;7.70;;;3.80;;
1977;SDS011;989;53.016;8.346;2023-08-17T01:49:18;3.57;;;3.10;;
1977;SDS011;989;53.016;8.346;2023-08-17T01:51:44;9.70;;;3.53;;
1977;SDS011;989;53.016;8.346;2023-08-17T01:54:10;5.87;;;3.07;;
1977;SDS011;989;53.016;8.346;2023-08-17T01:56:36;8.30;;;3.40;;
1977;SDS011;989;53.016;8.346;2023-08-17T01:59:02;5.77;;;3.10;;
1977;SDS011;989;53.016;8.346;2023-08-17T02:01:28;9.20;;;3.30;;
1977;SDS011;989;53.016;8.346;2023-08-17T02:03:54;11.13;;;4.23;;
1977;SDS011;989;53.016;8.346;2023-08-17T02:06:20;11.03;;;3.20;;
1977;SDS011;989;53.016;8.346;2023-08-17T02:08:46;7.80;;;3.77;;
1977;SDS011;989;53.016;8.346;2023-08-17T02:11:12;11.63;;;3.10;;
1977;SDS011;989;53.016;8.346;2023-08-17T02:13:38;4.07;;;3.20;;
1977;SDS011;989;53.016;8.346;2023-08-17T02:16:04;6.00;;;3.30;;
1977;SDS011;989;53.016;8.346;2023-08-17T02:18:30;8.23;;;3.00;;
1977;SDS011;989;53.016;8.346;2023-08-17T02:20:58;9.50;;;3.43;;
1977;SDS011;989;53.016;8.346;2023-08-17T02:23:24;4.73;;;3.10;;
1977;SDS011;989;53.016;8.346;2023-08-17T02:25:51;9.33;;;3.90;;
1977;SDS011;989;53.016;8.346;2023-08-17T02:28:17;4.13;;;3.10;;
1977;SDS011;989;53.016;8.346;2023-08-17T02:30:43;6.47;;;3.57;;
1977;SDS011;989;53.016;8.346;2023-08-17T02:33:09;7.60;;;3.30;;
1977;SDS011;989;53.016;8.346;2023-08-17T02:35:35;12.27;;;3.07;;
1977;SDS011;989;53.016;8.346;2023-08-17T02:38:01;4.60;;;3.10;;
1977;SDS011;989;53.016;8.346;2023-08-17T02:40:27;14.27;;;4.93;;
1977;SDS011;989;53.016;8.346;2023-08-17T02:42:53;12.73;;;3.13;;
1977;SDS011;989;53.016;8.346;2023-08-17T02:45:19;5.23;;;3.23;;
1977;SDS011;989;53.016;8.346;2023-08-17T02:47:45;5.37;;;3.10;;
1977;SDS011;989;53.016;8.346;2023-08-17T02:50:11;4.47;;;3.23;;
1977;SDS011;989;53.016;8.346;2023-08-17T02:52:38;8.63;;;2.90;;
1977;SDS011;989;53.016;8.346;2023-08-17T02:55:04;7.93;;;3.20;;
1977;SDS011;989;53.016;8.346;2023-08-17T02:57:30;9.03;;;3.60;;
1977;SDS011;989;53.016;8.346;2023-08-17T02:59:57;6.80;;;3.63;;
1977;SDS011;989;53.016;8.346;2023-08-17T03:02:23;4.27;;;2.90;;
1977;SDS011;989;53.016;8.346;2023-08-17T03:04:49;9.03;;;4.10;;
1977;SDS011;989;53.016;8.346;2023-08-17T03:07:15;3.30;;;3.00;;
1977;SDS011;989;53.016;8.346;2023-08-17T03:09:41;11.63;;;3.10;;
1977;SDS011;989;53.016;8.346;2023-08-17T03:12:07;8.70;;;3.80;;
1977;SDS011;989;53.016;8.346;2023-08-17T03:14:33;5.50;;;3.03;;
1977;SDS011;989;53.016;8.346;2023-08-17T03:16:59;12.87;;;3.43;;
1977;SDS011;989;53.016;8.346;2023-08-17T03:19:25;6.50;;;3.10;;
1977;SDS011;989;53.016;8.346;2023-08-17T03:21:51;4.07;;;2.80;;
1977;SDS011;989;53.016;8.346;2023-08-17T03:24:17;12.50;;;3.00;;
1977;SDS011;989;53.016;8.346;2023-08-17T03:26:43;6.50;;;3.43;;
1977;SDS011;989;53.016;8.346;2023-08-17T03:29:09;12.03;;;3.20;;
1977;SDS011;989;53.016;8.346;2023-08-17T03:31:35;5.90;;;2.90;;
1977;SDS011;989;53.016;8.346;2023-08-17T03:34:01;12.47;;;3.77;;
1977;SDS011;989;53.016;8.346;2023-08-17T03:36:27;8.53;;;3.17;;
1977;SDS011;989;53.016;8.346;2023-08-17T03:38:53;10.77;;;2.97;;
1977;SDS011;989;53.016;8.346;2023-08-17T03:41:21;6.00;;;3.53;;
1977;SDS011;989;53.016;8.346;2023-08-17T03:43:50;4.40;;;3.20;;
1977;SDS011;989;53.016;8.346;2023-08-17T03:46:16;13.40;;;3.53;;
1977;SDS011;989;53.016;8.346;2023-08-17T03:48:42;16.17;;;3.07;;
1977;SDS011;989;53.016;8.346;2023-08-17T03:51:08;6.63;;;2.70;;
1977;SDS011;989;53.016;8.346;2023-08-17T03:53:34;6.20;;;2.77;;
1977;SDS011;989;53.016;8.346;2023-08-17T03:56:00;4.70;;;3.50;;
1977;SDS011;989;53.016;8.346;2023-08-17T03:58:26;8.63;;;2.73;;
1977;SDS011;989;53.016;8.346;2023-08-17T04:00:57;3.20;;;2.60;;
1977;SDS011;989;53.016;8.346;2023-08-17T04:03:23;10.10;;;3.80;;
1977;SDS011;989;53.016;8.346;2023-08-17T04:05:49;12.10;;;3.30;;
1977;SDS011;989;53.016;8.346;2023-08-17T04:08:15;17.90;;;2.90;;
1977;SDS011;989;53.016;8.346;2023-08-17T04:10:41;4.60;;;2.80;;
1977;SDS011;989;53.016;8.346;2023-08-17T04:13:07;7.40;;;3.13;;
1977;SDS011;989;53.016;8.346;2023-08-17T04:15:33;6.60;;;2.77;;
1977;SDS011;989;53.016;8.346;2023-08-17T04:17:59;3.80;;;2.60;;
1977;SDS011;989;53.016;8.346;2023-08-17T04:20:25;7.47;;;2.13;;
1977;SDS011;989;53.016;8.346;2023-08-17T04:22:51;14.70;;;2.70;;
1977;SDS011;989;53.016;8.346;2023-08-17T04:25:18;5.60;;;2.83;;
1977;SDS011;989;53.016;8.346;2023-08-17T04:27:44;5.27;;;2.70;;
1977;SDS011;989;53.016;8.346;2023-08-17T04:30:10;7.97;;;2.53;;
1977;SDS011;989;53.016;8.346;2023-08-17T04:32:37;7.57;;;2.93;;
1977;SDS011;989;53.016;8.346;2023-08-17T04:35:03;10.73;;;3.70;;
1977;SDS011;989;53.016;8.346;2023-08-17T04:37:29;10.67;;;3.40;;
1977;SDS011;989;53.016;8.346;2023-08-17T04:39:55;4.40;;;2.70;;
1977;SDS011;989;53.016;8.346;2023-08-17T04:42:21;2.33;;;2.13;;
1977;SDS011;989;53.016;8.346;2023-08-17T04:44:47;7.10;;;2.90;;
1977;SDS011;989;53.016;8.346;2023-08-17T04:47:13;6.80;;;2.87;;
1977;SDS011;989;53.016;8.346;2023-08-17T04:49:39;17.90;;;3.00;;
1977;SDS011;989;53.016;8.346;2023-08-17T04:52:05;4.87;;;3.30;;
1977;SDS011;989;53.016;8.346;2023-08-17T04:54:32;10.33;;;3.13;;
1977;SDS011;989;53.016;8.346;2023-08-17T04:56:58;14.37;;;3.63;;
1977;SDS011;989;53.016;8.346;2023-08-17T04:59:24;5.83;;;3.53;;
1977;SDS011;989;53.016;8.346;2023-08-17T05:01:50;7.43;;;3.33;;
1977;SDS011;989;53.016;8.346;2023-08-17T05:04:16;4.83;;;3.27;;
1977;SDS011;989;53.016;8.346;2023-08-17T05:06:42;6.80;;;3.30;;
1977;SDS011;989;53.016;8.346;2023-08-17T05:09:08;4.97;;;3.37;;
1977;SDS011;989;53.016;8.346;2023-08-17T05:11:34;6.73;;;2.80;;
1977;SDS011;989;53.016;8.346;2023-08-17T05:14:00;8.60;;;4.43;;
1977;SDS011;989;53.016;8.346;2023-08-17T05:16:26;8.00;;;2.97;;
1977;SDS011;989;53.016;8.346;2023-08-17T05:18:52;7.17;;;3.70;;
1977;SDS011;989;53.016;8.346;2023-08-17T05:21:18;7.90;;;3.13;;
1977;SDS011;989;53.016;8.346;2023-08-17T05:23:45;20.30;;;4.07;;
1977;SDS011;989;53.016;8.346;2023-08-17T05:26:11;4.13;;;2.60;;
1977;SDS011;989;53.016;8.346;2023-08-17T05:28:37;8.13;;;3.17;;
1977;SDS011;989;53.016;8.346;2023-08-17T05:31:06;8.30;;;4.10;;
1977;SDS011;989;53.016;8.346;2023-08-17T05:33:32;6.80;;;3.50;;
1977;SDS011;989;53.016;8.346;2023-08-17T05:35:58;6.30;;;3.30;;
1977;SDS011;989;53.016;8.346;2023-08-17T05:38:24;8.00;;;3.43;;
1977;SDS011;989;53.016;8.346;2023-08-17T05:40:57;4.33;;;2.90;;
1977;SDS011;989;53.016;8.346;2023-08-17T05:43:23;6.20;;;3.23;;
1977;SDS011;989;53.016;8.346;2023-08-17T05:45:50;5.53;;;3.37;;
1977;SDS011;989;53.016;8.346;2023-08-17T05:48:18;3.70;;;2.97;;
1977;SDS011;989;53.016;8.346;2023-08-17T05:50:45;4.87;;;2.93;;
1977;SDS011;989;53.016;8.346;2023-08-17T05:53:12;9.90;;;3.00;;
1977;SDS011;989;53.016;8.346;2023-08-17T05:55:38;6.00;;;3.40;;
1977;SDS011;989;53.016;8.346;2023-08-17T05:58:04;6.83;;;3.53;;
1977;SDS011;989;53.016;8.346;2023-08-17T06:00:30;7.40;;;3.70;;
1977;SDS011;989;53.016;8.346;2023-08-17T06:02:56;5.90;;;3.00;;
1977;SDS011;989;53.016;8.346;2023-08-17T06:05:26;6.20;;;5.60;;
1977;SDS011;989;53.016;8.346;2023-08-17T06:07:54;6.90;;;3.53;;
1977;SDS011;989;53.016;8.346;2023-08-17T06:10:24;7.83;;;3.10;;
1977;SDS011;989;53.016;8.346;2023-08-17T06:12:53;5.77;;;3.50;;
1977;SDS011;989;53.016;8.346;2023-08-17T06:15:20;5.53;;;2.73;;
1977;SDS011;989;53.016;8.346;2023-08-17T06:17:47;8.10;;;3.37;;
1977;SDS011;989;53.016;8.346;2023-08-17T06:20:15;10.63;;;2.93;;
1977;SDS011;989;53.016;8.346;2023-08-17T06:22:41;8.03;;;3.20;;
1977;SDS011;989;53.016;8.346;2023-08-17T06:25:08;6.30;;;3.80;;
1977;SDS011;989;53.016;8.346;2023-08-17T06:27:34;8.63;;;2.90;;
1977;SDS011;989;53.016;8.346;2023-08-17T06:30:01;3.87;;;3.10;;
1977;SDS011;989;53.016;8.346;2023-08-17T06:32:28;6.40;;;3.20;;
1977;SDS011;989;53.016;8.346;2023-08-17T06:34:57;4.00;;;3.20;;
1977;SDS011;989;53.016;8.346;2023-08-17T06:37:23;9.63;;;3.23;;
1977;SDS011;989;53.016;8.346;2023-08-17T06:39:49;5.57;;;3.27;;
1977;SDS011;989;53.016;8.346;2023-08-17T06:42:15;7.40;;;4.10;;
1977;SDS011;989;53.016;8.346;2023-08-17T06:44:42;3.63;;;2.70;;
1977;SDS011;989;53.016;8.346;2023-08-17T06:47:08;7.40;;;3.20;;
1977;SDS011;989;53.016;8.346;2023-08-17T06:49:35;5.23;;;2.70;;
1977;SDS011;989;53.016;8.346;2023-08-17T06:52:01;7.87;;;3.53;;
1977;SDS011;989;53.016;8.346;2023-08-17T06:54:27;7.73;;;3.43;;
1977;SDS011;989;53.016;8.346;2023-08-17T06:56:53;6.17;;;2.90;;
1977;SDS011;989;53.016;8.346;2023-08-17T06:59:19;10.10;;;4.17;;
1977;SDS011;989;53.016;8.346;2023-08-17T07:01:45;6.43;;;3.00;;
1977;SDS011;989;53.016;8.346;2023-08-17T07:04:11;4.13;;;2.77;;
1977;SDS011;989;53.016;8.346;2023-08-17T07:06:38;9.30;;;3.60;;
1977;SDS011;989;53.016;8.346;2023-08-17T07:09:06;4.37;;;2.73;;
1977;SDS011;989;53.016;8.346;2023-08-17T07:11:32;4.60;;;2.73;;
1977;SDS011;989;53.016;8.346;2023-08-17T07:13:58;4.87;;;2.90;;
1977;SDS011;989;53.016;8.346;2023-08-17T07:16:24;11.20;;;4.43;;
1977;SDS011;989;53.016;8.346;2023-08-17T07:18:50;5.90;;;3.30;;
1977;SDS011;989;53.016;8.346;2023-08-17T07:21:16;4.10;;;3.03;;
1977;SDS011;989;53.016;8.346;2023-08-17T07:23:43;8.27;;;2.60;;
1977;SDS011;989;53.016;8.346;2023-08-17T07:26:09;8.80;;;3.50;;
1977;SDS011;989;53.016;8.346;2023-08-17T07:28:36;8.73;;;3.77;;
1977;SDS011;989;53.016;8.346;2023-08-17T07:31:02;4.27;;;3.10;;
1977;SDS011;989;53.016;8.346;2023-08-17T07:33:28;4.50;;;2.57;;
1977;SDS011;989;53.016;8.346;2023-08-17T07:35:54;4.73;;;3.43;;
1977;SDS011;989;53.016;8.346;2023-08-17T07:38:23;5.80;;;3.07;;
1977;SDS011;989;53.016;8.346;2023-08-17T07:40:49;7.33;;;2.90;;
1977;SDS011;989;53.016;8.346;2023-08-17T07:43:15;7.70;;;2.90;;
1977;SDS011;989;53.016;8.346;2023-08-17T07:45:41;4.47;;;4.07;;
1977;SDS011;989;53.016;8.346;2023-08-17T07:48:07;3.23;;;2.17;;
1977;SDS011;989;53.016;8.346;2023-08-17T07:50:33;8.13;;;2.77;;
1977;SDS011;989;53.016;8.346;2023-08-17T07:52:59;4.33;;;2.63;;
1977;SDS011;989;53.016;8.346;2023-08-17T07:55:25;6.93;;;2.97;;
1977;SDS011;989;53.016;8.346;2023-08-17T07:57:52;5.73;;;3.03;;
1977;SDS011;989;53.016;8.346;2023-08-17T08:00:18;3.10;;;2.57;;
1977;SDS011;989;53.016;8.346;2023-08-17T08:02:45;8.03;;;3.00;;
1977;SDS011;989;53.016;8.346;2023-08-17T08:05:11;5.90;;;3.10;;
1977;SDS011;989;53.016;8.346;2023-08-17T08:07:39;3.97;;;2.53;;
1977;SDS011;989;53.016;8.346;2023-08-17T08:10:06;4.33;;;3.20;;
1977;SDS011;989;53.016;8.346;2023-08-17T08:12:32;5.30;;;3.63;;
1977;SDS011;989;53.016;8.346;2023-08-17T08:14:58;3.63;;;2.87;;
1977;SDS011;989;53.016;8.346;2023-08-17T08:17:25;5.23;;;3.20;;
1977;SDS011;989;53.016;8.346;2023-08-17T08:19:51;10.47;;;3.20;;
1977;SDS011;989;53.016;8.346;2023-08-17T08:22:18;5.63;;;3.37;;
1977;SDS011;989;53.016;8.346;2023-08-17T08:24:44;6.03;;;3.40;;
1977;SDS011;989;53.016;8.346;2023-08-17T08:27:11;4.90;;;3.30;;
1977;SDS011;989;53.016;8.346;2023-08-17T08:29:37;6.50;;;3.80;;
1977;SDS011;989;53.016;8.346;2023-08-17T08:32:03;4.47;;;3.70;;
1977;SDS011;989;53.016;8.346;2023-08-17T08:34:29;6.90;;;3.20;;
1977;SDS011;989;53.016;8.346;2023-08-17T08:36:55;12.70;;;3.67;;
1977;SDS011;989;53.016;8.346;2023-08-17T08:39:21;5.03;;;3.33;;
1977;SDS011;989;53.016;8.346;2023-08-17T08:41:50;6.13;;;3.20;;
1977;SDS011;989;53.016;8.346;2023-08-17T08:44:16;7.13;;;3.60;;
1977;SDS011;989;53.016;8.346;2023-08-17T08:46:42;6.60;;;3.23;;
1977;SDS011;989;53.016;8.346;2023-08-17T08:49:10;9.00;;;3.70;;
1977;SDS011;989;53.016;8.346;2023-08-17T08:51:37;9.50;;;3.07;;
1977;SDS011;989;53.016;8.346;2023-08-17T08:54:06;4.80;;;2.90;;
1977;SDS011;989;53.016;8.346;2023-08-17T08:56:35;6.40;;;2.47;;
1977;SDS011;989;53.016;8.346;2023-08-17T08:59:03;4.90;;;3.00;;
1977;SDS011;989;53.016;8.346;2023-08-17T09:01:33;4.00;;;2.87;;
1977;SDS011;989;53.016;8.346;2023-08-17T09:03:59;4.80;;;3.50;;
1977;SDS011;989;53.016;8.346;2023-08-17T09:06:26;4.50;;;3.33;;
1977;SDS011;989;53.016;8.346;2023-08-17T09:08:52;6.40;;;3.10;;
1977;SDS011;989;53.016;8.346;2023-08-17T09:11:18;8.97;;;3.43;;
1977;SDS011;989;53.016;8.346;2023-08-17T09:13:45;8.47;;;3.23;;
1977;SDS011;989;53.016;8.346;2023-08-17T09:16:11;8.53;;;3.40;;
1977;SDS011;989;53.016;8.346;2023-08-17T09:18:37;4.77;;;3.17;;
1977;SDS011;989;53.016;8.346;2023-08-17T09:21:03;5.60;;;2.90;;
1977;SDS011;989;53.016;8.346;2023-08-17T09:23:29;4.43;;;2.87;;
1977;SDS011;989;53.016;8.346;2023-08-17T09:25:55;6.43;;;2.97;;
1977;SDS011;989;53.016;8.346;2023-08-17T09:28:25;3.73;;;3.40;;
1977;SDS011;989;53.016;8.346;2023-08-17T09:30:52;5.97;;;3.57;;
1977;SDS011;989;53.016;8.346;2023-08-17T09:33:20;6.57;;;3.57;;
1977;SDS011;989;53.016;8.346;2023-08-17T09:35:50;4.70;;;4.20;;
1977;SDS011;989;53.016;8.346;2023-08-17T09:38:17;7.97;;;4.37;;
1977;SDS011;989;53.016;8.346;2023-08-17T09:40:44;5.57;;;4.10;;
1977;SDS011;989;53.016;8.346;2023-08-17T09:43:10;4.53;;;4.13;;
1977;SDS011;989;53.016;8.346;2023-08-17T09:45:38;6.83;;;4.47;;
1977;SDS011;989;53.016;8.346;2023-08-17T09:48:05;4.83;;;4.03;;
1977;SDS011;989;53.016;8.346;2023-08-17T09:50:34;5.73;;;4.30;;
1977;SDS011;989;53.016;8.346;2023-08-17T09:53:01;4.37;;;3.60;;
1977;SDS011;989;53.016;8.346;2023-08-17T09:55:29;6.40;;;4.40;;
1977;SDS011;989;53.016;8.346;2023-08-17T09:57:58;5.87;;;3.90;;
1977;SDS011;989;53.016;8.346;2023-08-17T10:00:24;8.37;;;4.50;;
1977;SDS011;989;53.016;8.346;2023-08-17T10:02:50;5.73;;;3.50;;
1977;SDS011;989;53.016;8.346;2023-08-17T10:05:17;6.23;;;3.90;;
1977;SDS011;989;53.016;8.346;2023-08-17T10:07:46;4.23;;;3.33;;
1977;SDS011;989;53.016;8.346;2023-08-17T10:10:14;6.37;;;3.80;;
1977;SDS011;989;53.016;8.346;2023-08-17T10:12:47;5.07;;;4.07;;
1977;SDS011;989;53.016;8.346;2023-08-17T10:15:19;4.70;;;4.30;;
1977;SDS011;989;53.016;8.346;2023-08-17T10:20:21;7.10;;;4.20;;
1977;SDS011;989;53.016;8.346;2023-08-17T10:22:52;3.50;;;3.20;;
1977;SDS011;989;53.016;8.346;2023-08-17T10:25:30;6.90;;;3.70;;
1977;SDS011;989;53.016;8.346;2023-08-17T10:27:57;4.73;;;3.67;;
1977;SDS011;989;53.016;8.346;2023-08-17T10:30:25;4.17;;;3.87;;
1977;SDS011;989;53.016;8.346;2023-08-17T10:32:51;4.77;;;4.27;;
1977;SDS011;989;53.016;8.346;2023-08-17T10:35:17;5.47;;;3.80;;
1977;SDS011;989;53.016;8.346;2023-08-17T10:37:43;4.93;;;4.20;;
1977;SDS011;989;53.016;8.346;2023-08-17T10:40:10;6.70;;;4.40;;
1977;SDS011;989;53.016;8.346;2023-08-17T10:42:36;4.80;;;4.27;;
1977;SDS011;989;53.016;8.346;2023-08-17T10:45:24;4.70;;;4.30;;
1977;SDS011;989;53.016;8.346;2023-08-17T10:50:33;5.33;;;4.03;;
1977;SDS011;989;53.016;8.346;2023-08-17T10:53:19;4.83;;;4.43;;
1977;SDS011;989;53.016;8.346;2023-08-17T10:55:45;10.90;;;4.57;;
1977;SDS011;989;53.016;8.346;2023-08-17T10:58:17;6.37;;;5.77;;
1977;SDS011;989;53.016;8.346;2023-08-17T11:00:43;6.70;;;5.17;;
1977;SDS011;989;53.016;8.346;2023-08-17T11:03:10;6.07;;;4.80;;
1977;SDS011;989;53.016;8.346;2023-08-17T11:05:48;14.53;;;5.83;;
1977;SDS011;989;53.016;8.346;2023-08-17T11:08:38;5.87;;;5.37;;
1977;SDS011;989;53.016;8.346;2023-08-17T11:11:10;5.57;;;5.13;;
1977;SDS011;989;53.016;8.346;2023-08-17T11:13:43;6.07;;;5.57;;
1977;SDS011;989;53.016;8.346;2023-08-17T11:16:12;5.67;;;5.10;;
1977;SDS011;989;53.016;8.346;2023-08-17T11:18:39;5.50;;;5.07;;
1977;SDS011;989;53.016;8.346;2023-08-17T11:21:09;5.30;;;4.90;;
1977;SDS011;989;53.016;8.346;2023-08-17T11:23:36;6.30;;;5.40;;
1977;SDS011;989;53.016;8.346;2023-08-17T11:26:02;7.00;;;6.40;;
1977;SDS011;989;53.016;8.346;2023-08-17T11:28:32;7.20;;;6.20;;
1977;SDS011;989;53.016;8.346;2023-08-17T11:31:03;9.37;;;6.73;;
1977;SDS011;989;53.016;8.346;2023-08-17T11:33:31;10.03;;;5.50;;
1977;SDS011;989;53.016;8.346;2023-08-17T11:35:58;7.00;;;6.40;;
1977;SDS011;989;53.016;8.346;2023-08-17T11:38:25;6.87;;;6.33;;
1977;SDS011;989;53.016;8.346;2023-08-17T11:40:52;9.40;;;6.50;;
1977;SDS011;989;53.016;8.346;2023-08-17T11:43:19;7.70;;;5.90;;
1977;SDS011;989;53.016;8.346;2023-08-17T11:45:46;6.20;;;5.60;;
1977;SDS011;989;53.016;8.346;2023-08-17T11:48:12;6.83;;;6.20;;
1977;SDS011;989;53.016;8.346;2023-08-17T11:50:41;7.13;;;6.53;;
1977;SDS011;989;53.016;8.346;2023-08-17T11:53:08;6.10;;;5.60;;
1977;SDS011;989;53.016;8.346;2023-08-17T11:55:34;7.77;;;6.73;;
1977;SDS011;989;53.016;8.346;2023-08-17T11:58:01;7.80;;;6.90;;
1977;SDS011;989;53.016;8.346;2023-08-17T12:00:28;7.53;;;6.53;;
1977;SDS011;989;53.016;8.346;2023-08-17T12:03:01;8.10;;;6.53;;
1977;SDS011;989;53.016;8.346;2023-08-17T12:05:28;6.93;;;6.23;;
1977;SDS011;989;53.016;8.346;2023-08-17T12:07:56;7.57;;;6.73;;
1977;SDS011;989;53.016;8.346;2023-08-17T12:10:24;6.87;;;6.13;;
1977;SDS011;989;53.016;8.346;2023-08-17T12:12:52;7.17;;;6.57;;
1977;SDS011;989;53.016;8.346;2023-08-17T12:15:18;6.77;;;6.03;;
1977;SDS011;989;53.016;8.346;2023-08-17T12:17:45;10.70;;;7.07;;
1977;SDS011;989;53.016;8.346;2023-08-17T12:20:19;7.17;;;6.67;;
1977;SDS011;989;53.016;8.346;2023-08-17T12:22:46;10.33;;;6.50;;
1977;SDS011;989;53.016;8.346;2023-08-17T12:25:12;7.83;;;7.13;;
1977;SDS011;989;53.016;8.346;2023-08-17T12:27:39;6.13;;;5.70;;
1977;SDS011;989;53.016;8.346;2023-08-17T12:30:09;5.77;;;5.27;;
1977;SDS011;989;53.016;8.346;2023-08-17T12:32:38;7.30;;;5.67;;
1977;SDS011;989;53.016;8.346;2023-08-17T12:35:04;6.00;;;5.50;;
1977;SDS011;989;53.016;8.346;2023-08-17T12:37:31;6.60;;;5.00;;
1977;SDS011;989;53.016;8.346;2023-08-17T12:39:57;8.67;;;5.43;;
1977;SDS011;989;53.016;8.346;2023-08-17T12:42:23;5.10;;;4.60;;
1977;SDS011;989;53.016;8.346;2023-08-17T12:44:49;7.67;;;5.43;;
1977;SDS011;989;53.016;8.346;2023-08-17T12:47:15;4.20;;;3.80;;
1977;SDS011;989;53.016;8.346;2023-08-17T12:49:41;8.03;;;4.83;;
1977;SDS011;989;53.016;8.346;2023-08-17T12:52:07;4.30;;;3.90;;
1977;SDS011;989;53.016;8.346;2023-08-17T12:54:33;4.63;;;4.33;;
1977;SDS011;989;53.016;8.346;2023-08-17T12:56:59;5.10;;;4.40;;
1977;SDS011;989;53.016;8.346;2023-08-17T12:59:27;4.87;;;4.47;;
1977;SDS011;989;53.016;8.346;2023-08-17T13:01:53;4.87;;;4.37;;
1977;SDS011;989;53.016;8.346;2023-08-17T13:04:19;6.60;;;4.70;;
1977;SDS011;989;53.016;8.346;2023-08-17T13:06:45;6.00;;;4.50;;
1977;SDS011;989;53.016;8.346;2023-08-17T13:09:12;6.17;;;5.57;;
1977;SDS011;989;53.016;8.346;2023-08-17T13:11:39;5.77;;;5.27;;
1977;SDS011;989;53.016;8.346;2023-08-17T13:14:05;5.43;;;4.97;;
1977;SDS011;989;53.016;8.346;2023-08-17T13:16:31;10.93;;;4.57;;
1977;SDS011;989;53.016;8.346;2023-08-17T13:18:57;6.10;;;4.20;;
1977;SDS011;989;53.016;8.346;2023-08-17T13:21:23;4.83;;;4.43;;
1977;SDS011;989;53.016;8.346;2023-08-17T13:23:49;7.27;;;4.40;;
1977;SDS011;989;53.016;8.346;2023-08-17T13:26:15;5.50;;;4.70;;
1977;SDS011;989;53.016;8.346;2023-08-17T13:28:41;4.63;;;4.23;;
1977;SDS011;989;53.016;8.346;2023-08-17T13:31:07;4.60;;;4.20;;
1977;SDS011;989;53.016;8.346;2023-08-17T13:33:34;4.20;;;3.80;;
1977;SDS011;989;53.016;8.346;2023-08-17T13:36:00;5.67;;;4.53;;
1977;SDS011;989;53.016;8.346;2023-08-17T13:38:26;4.40;;;4.00;;
1977;SDS011;989;53.016;8.346;2023-08-17T13:40:52;7.20;;;3.97;;
1977;SDS011;989;53.016;8.346;2023-08-17T13:43:18;4.60;;;4.20;;
1977;SDS011;989;53.016;8.346;2023-08-17T13:45:44;3.60;;;3.30;;
1977;SDS011;989;53.016;8.346;2023-08-17T13:48:10;4.97;;;3.80;;
1977;SDS011;989;53.016;8.346;2023-08-17T13:50:36;4.53;;;3.60;;
1977;SDS011;989;53.016;8.346;2023-08-17T13:53:03;3.60;;;3.30;;
1977;SDS011;989;53.016;8.346;2023-08-17T13:55:29;3.87;;;3.57;;
1977;SDS011;989;53.016;8.346;2023-08-17T13:57:55;4.00;;;3.70;;
1977;SDS011;989;53.016;8.346;2023-08-17T14:00:23;4.33;;;3.97;;
1977;SDS011;989;53.016;8.346;2023-08-17T14:02:49;4.30;;;3.67;;
1977;SDS011;989;53.016;8.346;2023-08-17T14:05:16;8.90;;;3.70;;
1977;SDS011;989;53.016;8.346;2023-08-17T14:07:42;3.80;;;3.50;;
1977;SDS011;989;53.016;8.346;2023-08-17T14:10:08;4.10;;;3.60;;
1977;SDS011;989;53.016;8.346;2023-08-17T14:12:34;4.03;;;3.40;;
1977;SDS011;989;53.016;8.346;2023-08-17T14:15:00;4.33;;;3.93;;
1977;SDS011;989;53.016;8.346;2023-08-17T14:17:27;4.03;;;3.73;;
1977;SDS011;989;53.016;8.346;2023-08-17T14:19:53;4.73;;;4.33;;
1977;SDS011;989;53.016;8.346;2023-08-17T14:22:20;3.63;;;3.33;;
1977;SDS011;989;53.016;8.346;2023-08-17T14:24:46;4.37;;;3.57;;
1977;SDS011;989;53.016;8.346;2023-08-17T14:27:12;4.23;;;3.93;;
1977;SDS011;989;53.016;8.346;2023-08-17T14:29:38;9.23;;;3.37;;
1977;SDS011;989;53.016;8.346;2023-08-17T14:32:04;4.70;;;3.73;;
1977;SDS011;989;53.016;8.346;2023-08-17T14:34:30;10.83;;;2.90;;
1977;SDS011;989;53.016;8.346;2023-08-17T14:36:56;7.73;;;3.67;;
1977;SDS011;989;53.016;8.346;2023-08-17T14:39:22;5.23;;;3.50;;
1977;SDS011;989;53.016;8.346;2023-08-17T14:41:48;7.00;;;2.70;;
1977;SDS011;989;53.016;8.346;2023-08-17T14:44:14;4.10;;;2.77;;
1977;SDS011;989;53.016;8.346;2023-08-17T14:46:42;3.37;;;3.00;;
1977;SDS011;989;53.016;8.346;2023-08-17T14:49:08;3.43;;;2.70;;
1977;SDS011;989;53.016;8.346;2023-08-17T14:51:38;7.60;;;3.63;;
1977;SDS011;989;53.016;8.346;2023-08-17T14:54:06;5.27;;;2.93;;
1977;SDS011;989;53.016;8.346;2023-08-17T14:56:33;3.80;;;3.50;;
1977;SDS011;989;53.016;8.346;2023-08-17T14:58:59;4.60;;;3.00;;
1977;SDS011;989;53.016;8.346;2023-08-17T15:01:25;3.90;;;3.60;;
1977;SDS011;989;53.016;8.346;2023-08-17T15:03:51;4.30;;;4.00;;
1977;SDS011;989;53.016;8.346;2023-08-17T15:06:17;5.00;;;4.70;;
1977;SDS011;989;53.016;8.346;2023-08-17T15:08:48;5.53;;;5.23;;
1977;SDS011;989;53.016;8.346;2023-08-17T15:11:15;6.50;;;5.90;;
1977;SDS011;989;53.016;8.346;2023-08-17T15:13:41;5.73;;;5.40;;
1977;SDS011;989;53.016;8.346;2023-08-17T15:16:07;5.80;;;5.40;;
1977;SDS011;989;53.016;8.346;2023-08-17T15:18:33;8.13;;;4.83;;
1977;SDS011;989;53.016;8.346;2023-08-17T15:21:00;5.77;;;5.37;;
1977;SDS011;989;53.016;8.346;2023-08-17T15:23:26;5.30;;;4.90;;
1977;SDS011;989;53.016;8.346;2023-08-17T15:25:52;5.07;;;4.67;;
1977;SDS011;989;53.016;8.346;2023-08-17T15:28:18;5.43;;;5.03;;
1977;SDS011;989;53.016;8.346;2023-08-17T15:30:44;4.90;;;4.60;;
1977;SDS011;989;53.016;8.346;2023-08-17T15:33:10;4.47;;;4.07;;